sensor_id;sensor_type;location;lat;lon;timestamp;pressure;altitude;pressure_sealevel;temperature;humidity
35307;BME280;21420;52.196;21.416;2022-08-07T00:01:37;101106.62;;;14.44;63.53
35307;BME280;21420;52.196;21.416;2022-08-07T00:04:04;101112.36;;;14.39;63.61
35307;BME280;21420;52.196;21.416;2022-08-07T00:06:31;101107.52;;;14.36;63.61
35307;BME280;21420;52.196;21.416;2022-08-07T00:08:58;101106.96;;;14.30;63.69
35307;BME280;21420;52.196;21.416;2022-08-07T00:11:24;101104.87;;;14.27;63.72
35307;BME280;21420;52.196;21.416;2022-08-07T00:13:50;101096.84;;;14.22;63.71
35307;BME280;21420;52.196;21.416;2022-08-07T00:16:17;101095.45;;;14.16;63.71
35307;BME280;21420;52.196;21.416;2022-08-07T00:18:43;101100.15;;;14.09;63.73
35307;BME280;21420;52.196;21.416;2022-08-07T00:21:09;101098.53;;;14.02;63.78
35307;BME280;21420;52.196;21.416;2022-08-07T00:23:37;101097.61;;;13.98;63.82
35307;BME280;21420;52.196;21.416;2022-08-07T00:26:06;101100.70;;;13.90;63.75
35307;BME280;21420;52.196;21.416;2022-08-07T00:28:33;101105.39;;;13.84;63.84
35307;BME280;21420;52.196;21.416;2022-08-07T00:31:02;101108.58;;;13.80;63.93
35307;BME280;21420;52.196;21.416;2022-08-07T00:33:34;101106.64;;;13.74;63.91
35307;BME280;21420;52.196;21.416;2022-08-07T00:36:02;101107.66;;;13.69;64.00
35307;BME280;21420;52.196;21.416;2022-08-07T00:38:30;101106.72;;;13.65;64.04
35307;BME280;21420;52.196;21.416;2022-08-07T00:40:57;101106.03;;;13.62;64.09
35307;BME280;21420;52.196;21.416;2022-08-07T00:43:25;101099.59;;;13.58;64.09
35307;BME280;21420;52.196;21.416;2022-08-07T00:45:52;101099.78;;;13.53;64.08
35307;BME280;21420;52.196;21.416;2022-08-07T00:48:18;101105.50;;;13.48;64.11
35307;BME280;21420;52.196;21.416;2022-08-07T00:50:45;101105.14;;;13.43;64.16
35307;BME280;21420;52.196;21.416;2022-08-07T00:53:11;101111.55;;;13.41;64.23
35307;BME280;21420;52.196;21.416;2022-08-07T00:55:38;101112.81;;;13.38;64.24
35307;BME280;21420;52.196;21.416;2022-08-07T00:58:04;101115.64;;;13.35;64.23
35307;BME280;21420;52.196;21.416;2022-08-07T01:00:30;101114.95;;;13.32;64.29
35307;BME280;21420;52.196;21.416;2022-08-07T01:02:58;101113.68;;;13.29;64.33
35307;BME280;21420;52.196;21.416;2022-08-07T01:05:24;101111.80;;;13.27;64.35
35307;BME280;21420;52.196;21.416;2022-08-07T01:07:51;101112.48;;;13.24;64.36
35307;BME280;21420;52.196;21.416;2022-08-07T01:10:17;101110.17;;;13.20;64.39
35307;BME280;21420;52.196;21.416;2022-08-07T01:12:46;101107.52;;;13.18;64.41
35307;BME280;21420;52.196;21.416;2022-08-07T01:15:13;101106.00;;;13.14;64.44
35307;BME280;21420;52.196;21.416;2022-08-07T01:17:40;101107.80;;;13.10;64.41
35307;BME280;21420;52.196;21.416;2022-08-07T01:20:13;101105.27;;;13.05;64.37
35307;BME280;21420;52.196;21.416;2022-08-07T01:22:38;101103.84;;;12.99;64.38
35307;BME280;21420;52.196;21.416;2022-08-07T01:25:06;101104.05;;;12.94;64.42
35307;BME280;21420;52.196;21.416;2022-08-07T01:27:34;101106.76;;;12.87;64.42
35307;BME280;21420;52.196;21.416;2022-08-07T01:30:03;101114.05;;;12.83;64.39
35307;BME280;21420;52.196;21.416;2022-08-07T01:32:31;101113.56;;;12.75;64.39
35307;BME280;21420;52.196;21.416;2022-08-07T01:34:59;101111.91;;;12.68;64.36
35307;BME280;21420;52.196;21.416;2022-08-07T01:37:26;101110.20;;;12.55;64.20
35307;BME280;21420;52.196;21.416;2022-08-07T01:39:55;101088.38;;;12.20;63.90
35307;BME280;21420;52.196;21.416;2022-08-07T01:42:25;101088.38;;;12.20;63.90
35307;BME280;21420;52.196;21.416;2022-08-07T01:44:52;101110.73;;;12.24;64.36
35307;BME280;21420;52.196;21.416;2022-08-07T01:47:19;101106.64;;;12.16;64.41
35307;BME280;21420;52.196;21.416;2022-08-07T01:49:45;101110.47;;;12.08;64.43
35307;BME280;21420;52.196;21.416;2022-08-07T01:52:12;101103.63;;;12.00;64.37
35307;BME280;21420;52.196;21.416;2022-08-07T01:54:41;101109.48;;;11.90;64.35
35307;BME280;21420;52.196;21.416;2022-08-07T01:57:28;101109.48;;;11.81;64.36
35307;BME280;21420;52.196;21.416;2022-08-07T02:00:05;101105.06;;;11.74;64.44
35307;BME280;21420;52.196;21.416;2022-08-07T02:02:55;101105.55;;;11.67;64.52
35307;BME280;21420;52.196;21.416;2022-08-07T02:05:32;101105.95;;;11.63;64.62
35307;BME280;21420;52.196;21.416;2022-08-07T02:08:05;101107.73;;;11.59;64.67
35307;BME280;21420;52.196;21.416;2022-08-07T02:10:38;101107.59;;;11.55;64.71
35307;BME280;21420;52.196;21.416;2022-08-07T02:13:06;101114.86;;;11.51;64.72
35307;BME280;21420;52.196;21.416;2022-08-07T02:19:19;101109.38;;;11.42;64.78
35307;BME280;21420;52.196;21.416;2022-08-07T02:21:49;101112.60;;;11.36;64.86
35307;BME280;21420;52.196;21.416;2022-08-07T02:24:16;101111.63;;;11.32;64.86
35307;BME280;21420;52.196;21.416;2022-08-07T02:26:44;101120.25;;;11.28;64.92
35307;BME280;21420;52.196;21.416;2022-08-07T02:29:11;101116.88;;;11.22;64.92
35307;BME280;21420;52.196;21.416;2022-08-07T02:31:38;101120.73;;;11.21;64.96
35307;BME280;21420;52.196;21.416;2022-08-07T02:34:06;101112.03;;;11.19;65.06
35307;BME280;21420;52.196;21.416;2022-08-07T02:36:35;101111.56;;;11.17;65.05
35307;BME280;21420;52.196;21.416;2022-08-07T02:39:09;101111.08;;;11.15;65.14
35307;BME280;21420;52.196;21.416;2022-08-07T02:41:37;101115.73;;;11.14;65.21
35307;BME280;21420;52.196;21.416;2022-08-07T02:44:04;101113.34;;;11.13;65.21
35307;BME280;21420;52.196;21.416;2022-08-07T02:46:32;101111.22;;;11.10;65.20
35307;BME280;21420;52.196;21.416;2022-08-07T02:49:02;101119.03;;;11.05;65.16
35307;BME280;21420;52.196;21.416;2022-08-07T02:51:31;101117.34;;;10.98;65.12
35307;BME280;21420;52.196;21.416;2022-08-07T02:54:00;101110.41;;;10.83;65.29
35307;BME280;21420;52.196;21.416;2022-08-07T02:56:29;101110.41;;;10.83;65.29
35307;BME280;21420;52.196;21.416;2022-08-07T02:58:59;101111.67;;;10.77;65.13
35307;BME280;21420;52.196;21.416;2022-08-07T03:01:29;101113.20;;;10.72;65.17
35307;BME280;21420;52.196;21.416;2022-08-07T03:03:57;101117.70;;;10.68;65.19
35307;BME280;21420;52.196;21.416;2022-08-07T03:06:26;101121.63;;;10.64;65.21
35307;BME280;21420;52.196;21.416;2022-08-07T03:08:55;101125.58;;;10.60;65.23
35307;BME280;21420;52.196;21.416;2022-08-07T03:11:22;101122.81;;;10.52;65.64
35307;BME280;21420;52.196;21.416;2022-08-07T03:13:49;101121.56;;;10.47;65.66
35307;BME280;21420;52.196;21.416;2022-08-07T03:16:17;101128.48;;;10.44;65.59
35307;BME280;21420;52.196;21.416;2022-08-07T03:18:46;101128.48;;;10.44;65.59
35307;BME280;21420;52.196;21.416;2022-08-07T03:21:13;101122.78;;;10.43;65.29
35307;BME280;21420;52.196;21.416;2022-08-07T03:23:41;101119.28;;;10.40;65.31
35307;BME280;21420;52.196;21.416;2022-08-07T03:26:09;101107.80;;;10.40;65.41
35307;BME280;21420;52.196;21.416;2022-08-07T03:28:37;101122.31;;;10.50;65.71
35307;BME280;21420;52.196;21.416;2022-08-07T03:31:06;101120.69;;;10.49;65.34
35307;BME280;21420;52.196;21.416;2022-08-07T03:33:50;101120.15;;;10.49;65.37
35307;BME280;21420;52.196;21.416;2022-08-07T03:36:24;101108.91;;;10.39;65.35
35307;BME280;21420;52.196;21.416;2022-08-07T03:38:55;101128.36;;;10.49;65.46
35307;BME280;21420;52.196;21.416;2022-08-07T03:41:23;101129.09;;;10.52;65.56
35307;BME280;21420;52.196;21.416;2022-08-07T03:43:51;101128.78;;;10.54;65.55
35307;BME280;21420;52.196;21.416;2022-08-07T03:46:19;101131.44;;;10.56;65.59
35307;BME280;21420;52.196;21.416;2022-08-07T03:48:49;101131.44;;;10.56;65.59
35307;BME280;21420;52.196;21.416;2022-08-07T03:51:17;101125.81;;;10.61;65.59
35307;BME280;21420;52.196;21.416;2022-08-07T03:53:46;101125.08;;;10.67;65.68
35307;BME280;21420;52.196;21.416;2022-08-07T03:56:16;101124.95;;;10.72;65.66
35307;BME280;21420;52.196;21.416;2022-08-07T03:58:47;101132.22;;;10.77;65.58
35307;BME280;21420;52.196;21.416;2022-08-07T04:01:14;101132.22;;;10.77;65.58
35307;BME280;21420;52.196;21.416;2022-08-07T04:03:43;101134.00;;;10.81;65.68
35307;BME280;21420;52.196;21.416;2022-08-07T04:06:10;101124.80;;;10.77;65.75
35307;BME280;21420;52.196;21.416;2022-08-07T04:08:41;101124.80;;;10.77;65.75
35307;BME280;21420;52.196;21.416;2022-08-07T04:11:07;101138.54;;;10.95;65.81
35307;BME280;21420;52.196;21.416;2022-08-07T04:13:36;101146.78;;;11.03;65.87
35307;BME280;21420;52.196;21.416;2022-08-07T04:16:03;101145.16;;;11.11;65.98
35307;BME280;21420;52.196;21.416;2022-08-07T04:18:31;101126.45;;;11.04;65.98
35307;BME280;21420;52.196;21.416;2022-08-07T04:20:57;101158.41;;;11.27;65.93
35307;BME280;21420;52.196;21.416;2022-08-07T04:23:24;101156.78;;;11.34;65.97
35307;BME280;21420;52.196;21.416;2022-08-07T04:25:52;101161.39;;;11.45;66.05
35307;BME280;21420;52.196;21.416;2022-08-07T04:28:19;101158.08;;;11.54;66.05
35307;BME280;21420;52.196;21.416;2022-08-07T04:30:48;101157.28;;;11.62;66.03
35307;BME280;21420;52.196;21.416;2022-08-07T04:33:19;101159.62;;;11.66;65.89
35307;BME280;21420;52.196;21.416;2022-08-07T04:35:48;101159.13;;;11.73;65.98
35307;BME280;21420;52.196;21.416;2022-08-07T04:38:15;101164.92;;;11.80;65.98
35307;BME280;21420;52.196;21.416;2022-08-07T04:40:45;101166.34;;;11.86;65.96
35307;BME280;21420;52.196;21.416;2022-08-07T04:43:14;101170.34;;;11.92;65.97
35307;BME280;21420;52.196;21.416;2022-08-07T04:51:36;101174.77;;;12.22;66.15
35307;BME280;21420;52.196;21.416;2022-08-07T05:00:05;101178.63;;;12.54;66.17
35307;BME280;21420;52.196;21.416;2022-08-07T05:05:31;101184.14;;;12.68;66.14
35307;BME280;21420;52.196;21.416;2022-08-07T05:11:15;101193.86;;;12.96;66.32
35307;BME280;21420;52.196;21.416;2022-08-07T05:14:05;101196.84;;;13.11;66.33
35307;BME280;21420;52.196;21.416;2022-08-07T05:16:29;101195.63;;;13.21;66.28
35307;BME280;21420;52.196;21.416;2022-08-07T05:18:59;101195.39;;;13.29;66.24
35307;BME280;21420;52.196;21.416;2022-08-07T05:21:33;101198.41;;;13.36;66.20
35307;BME280;21420;52.196;21.416;2022-08-07T05:24:08;101200.52;;;13.45;66.26
35307;BME280;21420;52.196;21.416;2022-08-07T05:26:36;101202.52;;;13.57;66.26
35307;BME280;21420;52.196;21.416;2022-08-07T05:29:07;101211.65;;;13.70;66.30
35307;BME280;21420;52.196;21.416;2022-08-07T05:31:38;101211.14;;;13.83;66.33
35307;BME280;21420;52.196;21.416;2022-08-07T05:34:10;101212.55;;;13.95;66.33
35307;BME280;21420;52.196;21.416;2022-08-07T05:36:49;101203.88;;;14.05;66.31
35307;BME280;21420;52.196;21.416;2022-08-07T05:39:19;101202.31;;;14.16;66.32
35307;BME280;21420;52.196;21.416;2022-08-07T05:41:48;101211.75;;;14.28;66.29
35307;BME280;21420;52.196;21.416;2022-08-07T05:44:17;101214.62;;;14.37;66.25
35307;BME280;21420;52.196;21.416;2022-08-07T05:46:47;101211.66;;;14.49;66.28
35307;BME280;21420;52.196;21.416;2022-08-07T05:49:16;101216.98;;;14.60;66.23
35307;BME280;21420;52.196;21.416;2022-08-07T05:51:45;101216.77;;;14.71;66.24
35307;BME280;21420;52.196;21.416;2022-08-07T05:54:13;101212.87;;;14.85;66.31
35307;BME280;21420;52.196;21.416;2022-08-07T05:56:45;101211.72;;;14.98;66.27
35307;BME280;21420;52.196;21.416;2022-08-07T05:59:15;101211.61;;;15.07;66.20
35307;BME280;21420;52.196;21.416;2022-08-07T06:01:44;101210.90;;;15.22;66.22
35307;BME280;21420;52.196;21.416;2022-08-07T06:04:13;101208.69;;;15.34;66.15
35307;BME280;21420;52.196;21.416;2022-08-07T06:06:40;101204.97;;;15.48;66.19
35307;BME280;21420;52.196;21.416;2022-08-07T06:09:08;101208.84;;;15.59;66.09
35307;BME280;21420;52.196;21.416;2022-08-07T06:11:36;101207.22;;;15.71;66.08
35307;BME280;21420;52.196;21.416;2022-08-07T06:14:04;101208.25;;;15.78;65.93
35307;BME280;21420;52.196;21.416;2022-08-07T06:16:32;101213.04;;;15.88;65.90
35307;BME280;21420;52.196;21.416;2022-08-07T06:19:02;101210.20;;;16.00;65.99
35307;BME280;21420;52.196;21.416;2022-08-07T06:21:29;101202.38;;;16.24;66.21
35307;BME280;21420;52.196;21.416;2022-08-07T06:23:55;101209.51;;;16.41;65.93
35307;BME280;21420;52.196;21.416;2022-08-07T06:26:24;101212.69;;;16.49;65.74
35307;BME280;21420;52.196;21.416;2022-08-07T06:28:52;101216.22;;;16.56;65.63
35307;BME280;21420;52.196;21.416;2022-08-07T06:31:23;101214.21;;;16.62;65.53
35307;BME280;21420;52.196;21.416;2022-08-07T06:33:50;101215.12;;;16.82;65.82
35307;BME280;21420;52.196;21.416;2022-08-07T06:36:17;101224.45;;;17.10;65.96
35307;BME280;21420;52.196;21.416;2022-08-07T06:38:48;101221.80;;;17.23;65.71
35307;BME280;21420;52.196;21.416;2022-08-07T06:41:17;101222.09;;;17.27;65.30
35307;BME280;21420;52.196;21.416;2022-08-07T06:43:50;101222.02;;;17.34;65.30
35307;BME280;21420;52.196;21.416;2022-08-07T06:46:18;101229.17;;;17.44;65.25
35307;BME280;21420;52.196;21.416;2022-08-07T06:48:45;101230.50;;;17.60;65.16
35307;BME280;21420;52.196;21.416;2022-08-07T06:51:20;101224.47;;;18.03;66.10
35307;BME280;21420;52.196;21.416;2022-08-07T06:53:48;101228.20;;;18.90;66.05
35307;BME280;21420;52.196;21.416;2022-08-07T06:56:16;101232.32;;;19.70;65.85
35307;BME280;21420;52.196;21.416;2022-08-07T06:58:47;101234.52;;;20.62;65.65
35307;BME280;21420;52.196;21.416;2022-08-07T07:01:15;101226.87;;;21.62;65.45
35307;BME280;21420;52.196;21.416;2022-08-07T07:03:42;101227.34;;;22.68;65.28
35307;BME280;21420;52.196;21.416;2022-08-07T07:06:09;101243.34;;;23.65;64.81
35307;BME280;21420;52.196;21.416;2022-08-07T07:08:35;101236.30;;;24.53;64.00
35307;BME280;21420;52.196;21.416;2022-08-07T07:11:04;101233.73;;;25.37;63.58
35307;BME280;21420;52.196;21.416;2022-08-07T07:13:37;101229.92;;;26.31;63.27
35307;BME280;21420;52.196;21.416;2022-08-07T07:16:11;101222.58;;;27.24;62.88
35307;BME280;21420;52.196;21.416;2022-08-07T07:18:46;101224.06;;;28.16;62.24
35307;BME280;21420;52.196;21.416;2022-08-07T07:21:24;101222.59;;;28.94;61.49
35307;BME280;21420;52.196;21.416;2022-08-07T07:23:51;101229.06;;;29.65;60.64
35307;BME280;21420;52.196;21.416;2022-08-07T07:26:20;101220.09;;;30.30;60.05
35307;BME280;21420;52.196;21.416;2022-08-07T07:28:59;101216.62;;;30.86;59.21
35307;BME280;21420;52.196;21.416;2022-08-07T07:31:31;101210.98;;;31.26;58.57
35307;BME280;21420;52.196;21.416;2022-08-07T07:34:05;101211.93;;;31.71;57.92
35307;BME280;21420;52.196;21.416;2022-08-07T07:36:36;101212.31;;;32.14;57.26
35307;BME280;21420;52.196;21.416;2022-08-07T07:39:04;101209.95;;;32.71;56.50
35307;BME280;21420;52.196;21.416;2022-08-07T07:41:32;101218.31;;;32.89;55.65
35307;BME280;21420;52.196;21.416;2022-08-07T07:43:59;101211.07;;;33.38;55.49
35307;BME280;21420;52.196;21.416;2022-08-07T07:46:31;101211.47;;;33.83;54.92
35307;BME280;21420;52.196;21.416;2022-08-07T07:49:00;101209.31;;;34.16;54.14
35307;BME280;21420;52.196;21.416;2022-08-07T07:51:29;101211.30;;;34.53;53.98
35307;BME280;21420;52.196;21.416;2022-08-07T07:53:56;101206.94;;;35.11;53.56
35307;BME280;21420;52.196;21.416;2022-08-07T07:56:24;101200.67;;;35.56;52.76
35307;BME280;21420;52.196;21.416;2022-08-07T07:58:53;101208.15;;;35.93;52.25
35307;BME280;21420;52.196;21.416;2022-08-07T08:01:21;101200.26;;;36.18;51.38
35307;BME280;21420;52.196;21.416;2022-08-07T08:03:48;101198.16;;;36.33;50.68
35307;BME280;21420;52.196;21.416;2022-08-07T08:06:17;101200.50;;;36.45;49.88
35307;BME280;21420;52.196;21.416;2022-08-07T08:08:44;101203.98;;;36.59;49.60
35307;BME280;21420;52.196;21.416;2022-08-07T08:11:11;101204.73;;;37.11;49.66
35307;BME280;21420;52.196;21.416;2022-08-07T08:13:41;101201.78;;;37.68;49.18
35307;BME280;21420;52.196;21.416;2022-08-07T08:16:13;101201.60;;;37.99;48.31
35307;BME280;21420;52.196;21.416;2022-08-07T08:18:43;101195.00;;;38.40;48.12
35307;BME280;21420;52.196;21.416;2022-08-07T08:21:13;101199.23;;;38.83;47.41
35307;BME280;21420;52.196;21.416;2022-08-07T08:24:03;101201.59;;;38.85;46.27
35307;BME280;21420;52.196;21.416;2022-08-07T08:26:50;101194.85;;;38.55;45.71
35307;BME280;21420;52.196;21.416;2022-08-07T08:29:33;101202.94;;;38.68;45.67
35307;BME280;21420;52.196;21.416;2022-08-07T08:32:03;101200.53;;;39.21;45.43
35307;BME280;21420;52.196;21.416;2022-08-07T08:34:32;101189.38;;;39.68;45.13
35307;BME280;21420;52.196;21.416;2022-08-07T08:37:02;101194.18;;;40.00;44.42
35307;BME280;21420;52.196;21.416;2022-08-07T08:39:29;101190.14;;;39.96;43.61
35307;BME280;21420;52.196;21.416;2022-08-07T08:42:05;101193.92;;;39.59;42.59
35307;BME280;21420;52.196;21.416;2022-08-07T08:50:13;101203.66;;;37.35;41.96
35307;BME280;21420;52.196;21.416;2022-08-07T08:52:48;101198.72;;;37.93;42.37
35307;BME280;21420;52.196;21.416;2022-08-07T08:55:28;101198.08;;;38.31;41.81
35307;BME280;21420;52.196;21.416;2022-08-07T08:58:11;101195.22;;;37.36;40.71
35307;BME280;21420;52.196;21.416;2022-08-07T09:00:52;101201.27;;;37.85;40.62
35307;BME280;21420;52.196;21.416;2022-08-07T09:17:39;101192.09;;;40.01;39.94
35307;BME280;21420;52.196;21.416;2022-08-07T09:23:24;101190.80;;;41.00;39.44
35307;BME280;21420;52.196;21.416;2022-08-07T09:26:00;101184.38;;;41.66;38.80
35307;BME280;21420;52.196;21.416;2022-08-07T09:28:41;101176.23;;;41.95;38.69
35307;BME280;21420;52.196;21.416;2022-08-07T09:31:35;101180.38;;;42.24;37.64
35307;BME280;21420;52.196;21.416;2022-08-07T09:34:16;101174.70;;;42.18;37.50
35307;BME280;21420;52.196;21.416;2022-08-07T09:40:07;101163.70;;;42.54;36.79
35307;BME280;21420;52.196;21.416;2022-08-07T09:46:03;101165.42;;;42.38;36.29
35307;BME280;21420;52.196;21.416;2022-08-07T10:01:03;101150.05;;;44.22;34.40
35307;BME280;21420;52.196;21.416;2022-08-07T10:06:17;101145.09;;;43.18;33.76
35307;BME280;21420;52.196;21.416;2022-08-07T10:09:17;101142.03;;;42.97;33.22
35307;BME280;21420;52.196;21.416;2022-08-07T10:27:10;101137.17;;;43.77;32.75
35307;BME280;21420;52.196;21.416;2022-08-07T10:41:35;101130.66;;;43.31;31.26
35307;BME280;21420;52.196;21.416;2022-08-07T10:49:55;101129.78;;;43.36;30.51
35307;BME280;21420;52.196;21.416;2022-08-07T10:55:39;101127.80;;;42.48;29.67
35307;BME280;21420;52.196;21.416;2022-08-07T10:58:40;101124.38;;;42.37;30.32
35307;BME280;21420;52.196;21.416;2022-08-07T11:04:39;101119.23;;;42.99;29.77
35307;BME280;21420;52.196;21.416;2022-08-07T11:09:54;101109.11;;;42.74;29.55
35307;BME280;21420;52.196;21.416;2022-08-07T11:12:33;101112.59;;;43.04;29.40
35307;BME280;21420;52.196;21.416;2022-08-07T11:15:10;101107.80;;;42.94;29.09
35307;BME280;21420;52.196;21.416;2022-08-07T11:17:47;101112.98;;;42.89;29.17
35307;BME280;21420;52.196;21.416;2022-08-07T11:28:57;101100.59;;;43.65;28.74
35307;BME280;21420;52.196;21.416;2022-08-07T11:31:33;101103.97;;;43.50;28.19
35307;BME280;21420;52.196;21.416;2022-08-07T11:37:05;101102.95;;;41.10;27.49
35307;BME280;21420;52.196;21.416;2022-08-07T11:43:01;101099.11;;;40.54;27.85
35307;BME280;21420;52.196;21.416;2022-08-07T11:46:02;101094.79;;;40.60;27.99
35307;BME280;21420;52.196;21.416;2022-08-07T11:51:45;101092.09;;;41.15;27.90
35307;BME280;21420;52.196;21.416;2022-08-07T11:57:04;101083.02;;;40.11;27.28
35307;BME280;21420;52.196;21.416;2022-08-07T12:06:09;101075.53;;;38.67;27.54
35307;BME280;21420;52.196;21.416;2022-08-07T12:08:55;101066.19;;;38.33;27.22
35307;BME280;21420;52.196;21.416;2022-08-07T12:11:33;101068.27;;;37.79;27.18
35307;BME280;21420;52.196;21.416;2022-08-07T12:14:20;101065.67;;;38.02;27.52
35307;BME280;21420;52.196;21.416;2022-08-07T12:16:55;101063.02;;;37.99;27.27
35307;BME280;21420;52.196;21.416;2022-08-07T12:22:40;101063.11;;;37.51;27.36
35307;BME280;21420;52.196;21.416;2022-08-07T12:25:21;101063.77;;;37.29;27.28
35307;BME280;21420;52.196;21.416;2022-08-07T12:28:30;101063.97;;;36.83;27.22
35307;BME280;21420;52.196;21.416;2022-08-07T12:31:13;101057.81;;;36.54;27.60
35307;BME280;21420;52.196;21.416;2022-08-07T12:33:35;101061.38;;;36.70;27.67
35307;BME280;21420;52.196;21.416;2022-08-07T12:36:03;101058.52;;;36.96;27.85
35307;BME280;21420;52.196;21.416;2022-08-07T12:38:30;101060.48;;;37.10;27.51
35307;BME280;21420;52.196;21.416;2022-08-07T12:41:00;101051.18;;;36.73;27.13
35307;BME280;21420;52.196;21.416;2022-08-07T12:43:30;101049.84;;;35.86;26.66
35307;BME280;21420;52.196;21.416;2022-08-07T12:51:26;101043.02;;;34.30;27.14
35307;BME280;21420;52.196;21.416;2022-08-07T12:54:08;101043.78;;;33.82;27.12
35307;BME280;21420;52.196;21.416;2022-08-07T12:56:42;101047.55;;;33.17;26.96
35307;BME280;21420;52.196;21.416;2022-08-07T12:59:16;101043.96;;;32.29;26.70
35307;BME280;21420;52.196;21.416;2022-08-07T13:04:40;101032.83;;;32.53;27.93
35307;BME280;21420;52.196;21.416;2022-08-07T13:07:16;101030.08;;;32.95;28.33
35307;BME280;21420;52.196;21.416;2022-08-07T13:16:35;101023.61;;;34.28;28.34
35307;BME280;21420;52.196;21.416;2022-08-07T13:19:24;101026.31;;;34.27;28.25
35307;BME280;21420;52.196;21.416;2022-08-07T13:22:35;101024.47;;;34.19;28.31
35307;BME280;21420;52.196;21.416;2022-08-07T13:25:12;101014.48;;;34.44;28.42
35307;BME280;21420;52.196;21.416;2022-08-07T13:27:50;101002.96;;;34.62;28.52
35307;BME280;21420;52.196;21.416;2022-08-07T13:30:30;101001.12;;;34.54;28.16
35307;BME280;21420;52.196;21.416;2022-08-07T13:35:51;101006.82;;;34.35;28.26
35307;BME280;21420;52.196;21.416;2022-08-07T13:43:53;101007.64;;;34.31;28.10
35307;BME280;21420;52.196;21.416;2022-08-07T13:46:21;101007.50;;;34.10;28.17
35307;BME280;21420;52.196;21.416;2022-08-07T13:48:53;101004.09;;;33.97;28.13
35307;BME280;21420;52.196;21.416;2022-08-07T13:51:21;100998.03;;;33.56;27.99
35307;BME280;21420;52.196;21.416;2022-08-07T13:53:53;101001.39;;;33.45;28.14
35307;BME280;21420;52.196;21.416;2022-08-07T13:56:23;100997.94;;;33.41;28.26
35307;BME280;21420;52.196;21.416;2022-08-07T13:58:52;100996.69;;;33.42;28.36
35307;BME280;21420;52.196;21.416;2022-08-07T14:01:37;100994.38;;;33.31;28.09
35307;BME280;21420;52.196;21.416;2022-08-07T14:04:14;100990.45;;;32.72;27.97
35307;BME280;21420;52.196;21.416;2022-08-07T14:06:46;100987.47;;;32.48;27.94
35307;BME280;21420;52.196;21.416;2022-08-07T14:09:20;100989.37;;;32.05;27.77
35307;BME280;21420;52.196;21.416;2022-08-07T14:12:02;100992.45;;;31.30;27.79
35307;BME280;21420;52.196;21.416;2022-08-07T14:14:45;100989.64;;;30.77;28.03
35307;BME280;21420;52.196;21.416;2022-08-07T14:17:35;100979.98;;;30.25;28.13
35307;BME280;21420;52.196;21.416;2022-08-07T14:20:18;100982.55;;;29.67;28.38
35307;BME280;21420;52.196;21.416;2022-08-07T14:22:51;100983.90;;;29.33;28.61
35307;BME280;21420;52.196;21.416;2022-08-07T14:25:22;100981.81;;;28.95;28.85
35307;BME280;21420;52.196;21.416;2022-08-07T14:27:50;100981.99;;;28.62;28.97
35307;BME280;21420;52.196;21.416;2022-08-07T14:30:17;100973.70;;;28.26;29.01
35307;BME280;21420;52.196;21.416;2022-08-07T14:32:56;100969.11;;;28.02;29.23
35307;BME280;21420;52.196;21.416;2022-08-07T14:35:33;100970.44;;;27.81;29.40
35307;BME280;21420;52.196;21.416;2022-08-07T14:38:01;100966.75;;;27.68;29.70
35307;BME280;21420;52.196;21.416;2022-08-07T14:40:29;100961.58;;;27.58;29.57
35307;BME280;21420;52.196;21.416;2022-08-07T14:43:04;100960.14;;;27.26;29.71
35307;BME280;21420;52.196;21.416;2022-08-07T14:45:47;100961.48;;;27.01;29.88
35307;BME280;21420;52.196;21.416;2022-08-07T14:48:19;100963.80;;;26.78;29.99
35307;BME280;21420;52.196;21.416;2022-08-07T14:50:52;100965.23;;;26.54;30.16
35307;BME280;21420;52.196;21.416;2022-08-07T14:53:19;100958.58;;;26.36;30.29
35307;BME280;21420;52.196;21.416;2022-08-07T14:55:48;100965.41;;;26.15;30.39
35307;BME280;21420;52.196;21.416;2022-08-07T14:58:16;100957.56;;;25.95;30.56
35307;BME280;21420;52.196;21.416;2022-08-07T15:00:46;100958.63;;;25.78;30.74
35307;BME280;21420;52.196;21.416;2022-08-07T15:03:16;100957.56;;;25.71;31.00
35307;BME280;21420;52.196;21.416;2022-08-07T15:05:48;100955.59;;;25.68;31.15
35307;BME280;21420;52.196;21.416;2022-08-07T15:08:21;100955.17;;;25.70;31.30
35307;BME280;21420;52.196;21.416;2022-08-07T15:10:59;100945.52;;;25.71;31.39
35307;BME280;21420;52.196;21.416;2022-08-07T15:13:27;100946.76;;;25.70;31.53
35307;BME280;21420;52.196;21.416;2022-08-07T15:16:01;100946.67;;;25.73;31.62
35307;BME280;21420;52.196;21.416;2022-08-07T15:18:35;100941.02;;;25.77;31.78
35307;BME280;21420;52.196;21.416;2022-08-07T15:21:06;100947.78;;;25.80;31.96
35307;BME280;21420;52.196;21.416;2022-08-07T15:23:37;100946.21;;;25.79;31.94
35307;BME280;21420;52.196;21.416;2022-08-07T15:26:06;100941.02;;;25.77;32.07
35307;BME280;21420;52.196;21.416;2022-08-07T15:28:34;100939.45;;;25.76;32.12
35307;BME280;21420;52.196;21.416;2022-08-07T15:31:06;100939.20;;;25.79;32.30
35307;BME280;21420;52.196;21.416;2022-08-07T15:33:37;100937.73;;;25.70;32.23
35307;BME280;21420;52.196;21.416;2022-08-07T15:36:05;100937.19;;;25.67;32.33
35307;BME280;21420;52.196;21.416;2022-08-07T15:38:35;100935.72;;;25.59;32.32
35307;BME280;21420;52.196;21.416;2022-08-07T15:41:11;100931.34;;;25.58;32.46
35307;BME280;21420;52.196;21.416;2022-08-07T15:43:41;100928.59;;;25.43;32.42
35307;BME280;21420;52.196;21.416;2022-08-07T15:46:17;100924.75;;;25.45;32.64